Time;durP1;ratioP1;P1;durP2;ratioP2;P2;SDS_P1;SDS_P2;PMS_P1;PMS_P2;Temp;Humidity;BMP_temperature;BMP_pressure;BME280_temperature;BME280_humidity;BME280_pressure;Samples;Min_cycle;Max_cycle;Signal;HPM_P1;HPM_P2
2021/03/05 00:00:38;;;;;;;99.50;46.73;;;;;;;2.96;85.45;98831.72;1792639;80;21167;-74
2021/03/05 00:03:07;;;;;;;108.22;45.63;;;;;;;2.96;85.04;98831.72;1792597;80;21152;-72
2021/03/05 00:05:38;;;;;;;95.15;43.73;;;;;;;2.93;84.80;98826.32;1792634;79;21124;-72
2021/03/05 00:08:08;;;;;;;95.97;43.92;;;;;;;2.90;84.55;98827.43;1795094;79;21552;-72
2021/03/05 00:10:38;;;;;;;95.30;42.75;;;;;;;2.87;84.40;98823.95;1798631;79;21377;-71
2021/03/05 00:13:05;;;;;;;91.30;41.92;;;;;;;2.86;84.39;98826.41;1798490;79;21133;-70
2021/03/05 00:15:36;;;;;;;109.40;47.25;;;;;;;2.88;84.29;98829.64;1798302;79;21442;-71
2021/03/05 00:18:04;;;;;;;88.92;40.15;;;;;;;2.83;84.18;98825.07;1798587;79;21773;-70
2021/03/05 00:20:36;;;;;;;94.97;41.75;;;;;;;2.79;83.73;98825.92;1798570;79;21109;-70
2021/03/05 00:23:05;;;;;;;83.37;39.38;;;;;;;2.76;83.68;98823.77;1772656;79;21377;-70
2021/03/05 00:25:33;;;;;;;81.63;36.85;;;;;;;2.77;83.09;98822.67;1798429;79;21153;-70
2021/03/05 00:28:01;;;;;;;81.80;34.78;;;;;;;2.79;82.81;98826.72;1798431;79;21156;-70
2021/03/05 00:30:28;;;;;;;85.65;36.03;;;;;;;2.82;82.30;98831.58;1798454;79;20994;-70
2021/03/05 00:32:56;;;;;;;72.78;32.88;;;;;;;2.82;81.68;98831.58;1798477;79;21050;-69
2021/03/05 00:35:24;;;;;;;78.10;32.50;;;;;;;2.84;81.29;98831.30;1798458;79;21197;-70
2021/03/05 00:37:52;;;;;;;84.95;32.20;;;;;;;2.86;81.16;98839.96;1798317;79;21200;-70
2021/03/05 00:40:22;;;;;;;77.17;33.13;;;;;;;2.87;80.47;98836.16;1798496;79;21006;-69
2021/03/05 00:42:49;;;;;;;121.02;46.85;;;;;;;2.86;80.14;98835.89;1798470;79;21160;-69
2021/03/05 00:45:20;;;;;;;129.47;48.20;;;;;;;2.84;79.32;98835.37;1798545;79;21133;-70
2021/03/05 00:47:48;;;;;;;122.75;48.02;;;;;;;2.82;79.41;98832.12;1798571;79;22792;-70
2021/03/05 00:50:19;;;;;;;96.22;39.27;;;;;;;2.82;79.49;98828.88;1798349;79;21203;-69
2021/03/05 00:52:50;;;;;;;102.55;38.08;;;;;;;2.80;79.06;98826.98;1798546;79;20995;-71
2021/03/05 00:55:19;;;;;;;96.37;36.30;;;;;;;2.79;78.74;98824.02;1798723;79;21109;-71
2021/03/05 00:57:48;;;;;;;90.70;36.17;;;;;;;2.76;78.92;98815.64;1798326;79;21204;-70
2021/03/05 01:00:18;;;;;;;89.60;35.58;;;;;;;2.74;79.03;98812.40;1798701;79;22289;-71
2021/03/05 01:02:46;;;;;;;93.07;34.23;;;;;;;2.72;79.01;98814.03;1798386;79;21145;-71
2021/03/05 01:05:14;;;;;;;83.05;34.90;;;;;;;2.69;78.89;98819.20;1772153;79;21164;-71
2021/03/05 01:07:43;;;;;;;88.05;34.05;;;;;;;2.66;79.83;98823.30;1798411;79;21094;-71
2021/03/05 01:10:13;;;;;;;86.20;34.25;;;;;;;2.63;79.46;98817.08;1770691;79;21195;-71
2021/03/05 01:12:42;;;;;;;82.70;34.90;;;;;;;2.59;79.39;98816.83;1798816;79;21193;-72
2021/03/05 01:15:11;;;;;;;84.80;33.83;;;;;;;2.54;79.25;98823.64;1798838;79;21637;-72
2021/03/05 01:17:38;;;;;;;83.67;34.92;;;;;;;2.50;79.25;98829.35;1798699;79;21077;-71
2021/03/05 01:20:13;;;;;;;88.60;37.53;;;;;;;2.46;79.30;98830.19;1798798;79;21057;-72
2021/03/05 01:22:41;;;;;;;82.80;35.78;;;;;;;2.42;79.47;98830.48;1796117;79;21160;-71
2021/03/05 01:25:13;;;;;;;77.35;31.70;;;;;;;2.40;79.53;98826.70;1798685;79;21754;-71
2021/03/05 01:27:42;;;;;;;80.53;33.30;;;;;;;2.35;79.65;98825.38;1798802;79;21204;-71
2021/03/05 01:30:11;;;;;;;74.82;32.67;;;;;;;2.26;79.78;98825.72;1799002;79;20963;-70
2021/03/05 01:32:39;;;;;;;87.42;33.28;;;;;;;2.16;79.98;98827.94;1798735;79;20958;-70
2021/03/05 01:35:12;;;;;;;88.60;35.92;;;;;;;2.05;80.20;98818.23;1798856;79;22087;-70
2021/03/05 01:37:42;;;;;;;82.10;33.78;;;;;;;1.99;80.54;98822.86;1798757;79;22210;-71
2021/03/05 01:40:13;;;;;;;80.40;33.50;;;;;;;1.98;80.87;98826.66;1798741;79;21074;-69
2021/03/05 01:42:41;;;;;;;95.83;36.30;;;;;;;2.01;80.98;98828.55;1799176;79;21030;-70
2021/03/05 01:45:17;;;;;;;71.55;30.57;;;;;;;2.01;80.96;98836.66;1798679;79;21659;-69
2021/03/05 01:47:45;;;;;;;82.05;32.78;;;;;;;1.99;81.11;98829.63;1798371;79;21568;-69
2021/03/05 01:50:21;;;;;;;88.50;36.15;;;;;;;1.97;81.22;98827.74;1798763;79;21310;-69
2021/03/05 01:52:56;;;;;;;82.47;33.75;;;;;;;1.99;81.41;98828.27;1798582;79;21152;-69
2021/03/05 01:55:25;;;;;;;83.17;34.03;;;;;;;2.01;81.54;98833.95;1798937;79;21591;-68
2021/03/05 01:57:54;;;;;;;84.67;33.75;;;;;;;2.01;81.82;98829.89;1798766;79;21137;-68
2021/03/05 02:00:36;;;;;;;84.72;33.85;;;;;;;2.01;81.89;98833.95;1798626;79;21184;-68
2021/03/05 02:03:05;;;;;;;78.75;32.80;;;;;;;2.00;81.78;98841.27;1798985;79;21215;-68
2021/03/05 02:05:38;;;;;;;86.20;33.55;;;;;;;1.98;81.73;98833.42;1798743;79;21153;-69
2021/03/05 02:08:09;;;;;;;76.53;32.10;;;;;;;1.98;81.66;98836.67;1797635;79;21113;-69
2021/03/05 02:10:38;;;;;;;73.35;31.65;;;;;;;1.99;82.18;98845.87;1789923;80;21074;-69
2021/03/05 02:13:06;;;;;;;77.08;30.80;;;;;;;1.98;82.08;98845.60;1789795;80;21185;-70
2021/03/05 02:15:37;;;;;;;74.58;30.10;;;;;;;1.98;82.15;98848.85;1789754;80;23580;-70
2021/03/05 02:18:26;;;;;;;75.47;29.50;;;;;;;1.98;82.26;98854.27;1759325;80;21161;-71
2021/03/05 02:21:06;;;;;;;82.40;30.23;;;;;;;2.00;82.46;98852.09;1789673;80;21121;-71
2021/03/05 02:23:52;;;;;;;72.42;29.77;;;;;;;2.00;82.29;98862.92;1765683;80;21038;-71
2021/03/05 02:26:52;;;;;;;75.32;30.00;;;;;;;2.00;82.13;98862.92;1727761;80;21485;-70
2021/03/05 02:29:37;;;;;;;76.17;29.87;;;;;;;2.00;82.26;98866.98;1787851;80;21224;-70
2021/03/05 02:32:16;;;;;;;78.17;28.70;;;;;;;1.99;82.29;98868.88;1789889;80;20974;-70
2021/03/05 02:34:47;;;;;;;86.70;33.18;;;;;;;1.95;82.12;98871.88;1789229;80;21176;-70
2021/03/05 02:37:16;;;;;;;76.40;31.80;;;;;;;1.93;82.22;98862.41;1787617;80;21081;-72
2021/03/05 02:40:01;;;;;;;81.22;30.55;;;;;;;1.93;82.71;98870.53;1789646;80;21165;-70
2021/03/05 02:42:47;;;;;;;83.03;34.20;;;;;;;1.91;82.67;98873.51;1789818;80;21294;-70
2021/03/05 02:45:18;;;;;;;92.40;33.73;;;;;;;1.90;82.56;98867.02;1789848;80;20999;-70
2021/03/05 02:47:50;;;;;;;83.20;33.35;;;;;;;1.87;82.56;98881.91;1789795;80;21133;-72
2021/03/05 02:50:21;;;;;;;82.62;31.85;;;;;;;1.85;82.71;98880.56;1789900;80;21497;-71
2021/03/05 02:52:49;;;;;;;83.82;32.08;;;;;;;1.82;82.76;98880.57;1789763;80;21215;-70
2021/03/05 02:55:18;;;;;;;77.30;30.65;;;;;;;1.80;82.73;98890.86;1759467;80;21510;-72
2021/03/05 02:57:46;;;;;;;82.02;32.73;;;;;;;1.80;82.81;98898.17;1759382;80;21590;-71
2021/03/05 03:00:16;;;;;;;82.70;32.50;;;;;;;1.79;83.04;98888.42;1789932;80;21521;-70
2021/03/05 03:02:43;;;;;;;75.85;30.62;;;;;;;1.78;82.96;98887.61;1789775;80;21002;-69
2021/03/05 03:05:13;;;;;;;70.20;29.02;;;;;;;1.75;82.94;98892.22;1789844;80;21169;-70
2021/03/05 03:07:43;;;;;;;74.00;30.55;;;;;;;1.72;82.85;98888.73;1788353;80;21894;-71
2021/03/05 03:10:12;;;;;;;79.92;30.50;;;;;;;1.70;83.01;98887.39;1797488;79;21563;-71
2021/03/05 03:12:40;;;;;;;80.75;30.70;;;;;;;1.68;83.17;98886.31;1798912;79;21054;-71
2021/03/05 03:15:13;;;;;;;77.90;30.90;;;;;;;1.70;83.32;98896.86;1798732;79;21161;-71
2021/03/05 03:17:45;;;;;;;86.08;33.70;;;;;;;1.71;83.37;98895.23;1798733;79;21643;-71
2021/03/05 03:20:17;;;;;;;75.45;32.13;;;;;;;1.72;83.90;98898.21;1798894;79;21370;-71
2021/03/05 03:22:45;;;;;;;85.80;33.42;;;;;;;1.72;83.60;98896.86;1783366;79;20993;-71
2021/03/05 03:25:14;;;;;;;83.07;31.70;;;;;;;1.69;83.47;98901.46;1798802;79;21143;-73
2021/03/05 03:27:43;;;;;;;78.83;30.20;;;;;;;1.67;83.35;98900.11;1798697;79;21675;-72
2021/03/05 03:30:14;;;;;;;84.03;28.80;;;;;;;1.64;83.62;98896.06;1798885;79;21191;-73
2021/03/05 03:32:41;;;;;;;71.00;28.20;;;;;;;1.64;83.68;98902.83;1799074;79;21199;-73
2021/03/05 03:35:12;;;;;;;77.53;29.95;;;;;;;1.64;83.59;98905.53;1798917;79;21635;-72
2021/03/05 03:37:41;;;;;;;82.37;31.17;;;;;;;1.62;83.48;98915.27;1798660;79;21064;-72
2021/03/05 03:40:14;;;;;;;70.12;29.23;;;;;;;1.61;83.41;98906.88;1799032;78;21504;-71
2021/03/05 03:42:42;;;;;;;74.62;29.27;;;;;;;1.61;83.24;98907.42;1799101;79;21611;-71
2021/03/05 03:45:10;;;;;;;76.75;30.12;;;;;;;1.58;83.16;98904.72;1798973;79;21155;-72
2021/03/05 03:47:38;;;;;;;70.57;28.92;;;;;;;1.56;83.18;98906.89;1798823;79;20958;-72
2021/03/05 03:50:13;;;;;;;74.53;28.92;;;;;;;1.54;83.38;98910.95;1798844;79;21060;-72
2021/03/05 03:53:00;;;;;;;78.67;30.60;;;;;;;1.52;83.53;98907.70;1779760;79;21053;-72
2021/03/05 03:55:28;;;;;;;83.87;31.12;;;;;;;1.53;83.38;98912.03;1798942;79;21001;-70
2021/03/05 03:57:56;;;;;;;73.92;28.85;;;;;;;1.49;83.28;98911.77;1798835;79;21363;-69
2021/03/05 04:00:24;;;;;;;87.53;30.92;;;;;;;1.46;83.34;98896.62;1799026;78;21572;-70
2021/03/05 04:02:54;;;;;;;79.47;32.13;;;;;;;1.43;83.46;98899.33;1798829;79;21128;-69
2021/03/05 04:05:27;;;;;;;83.12;31.30;;;;;;;1.46;83.52;98905.55;1798833;79;21144;-70
2021/03/05 04:07:56;;;;;;;;;;;;;;;1.49;83.44;98910.95;1801533;79;21136;-70
2021/03/05 04:10:24;;;;;;;77.35;29.63;;;;;;;1.48;83.32;98917.45;1798862;79;21348;-69
2021/03/05 04:12:52;;;;;;;84.35;30.55;;;;;;;1.45;83.30;98921.50;1798805;79;21025;-69
2021/03/05 04:15:20;;;;;;;76.75;28.30;;;;;;;1.45;83.32;98918.80;1783430;79;20950;-70
2021/03/05 04:17:49;;;;;;;76.40;29.87;;;;;;;1.43;83.11;98917.45;1798660;79;21057;-69
2021/03/05 04:20:19;;;;;;;73.22;28.55;;;;;;;1.42;83.09;98914.47;1783496;79;21230;-70
2021/03/05 04:22:47;;;;;;;73.33;29.60;;;;;;;1.44;83.06;98919.88;1799024;79;21290;-70
2021/03/05 04:25:16;;;;;;;71.70;28.62;;;;;;;1.47;83.02;98918.53;1783577;79;20989;-68
2021/03/05 04:27:45;;;;;;;67.78;27.52;;;;;;;1.50;82.91;98917.98;1799001;78;21563;-69
2021/03/05 04:30:15;;;;;;;73.72;27.95;;;;;;;1.51;82.97;98915.01;1798973;78;20978;-70
2021/03/05 04:32:43;;;;;;;73.22;27.05;;;;;;;1.50;82.71;98917.98;1798853;79;21196;-69
2021/03/05 04:35:12;;;;;;;64.42;25.08;;;;;;;1.48;82.51;98919.61;1798962;79;21200;-68
2021/03/05 04:37:40;;;;;;;62.40;26.35;;;;;;;1.45;82.49;98919.34;1798641;79;20943;-70
2021/03/05 04:40:10;;;;;;;69.95;27.02;;;;;;;1.45;82.70;98924.20;1798744;78;20961;-67
2021/03/05 04:42:38;;;;;;;67.95;25.75;;;;;;;1.46;82.61;98927.19;1793380;79;20961;-68
2021/03/05 04:45:07;;;;;;;58.90;25.20;;;;;;;1.47;82.42;98927.99;1791795;80;21200;-68
2021/03/05 04:47:36;;;;;;;65.05;25.17;;;;;;;1.48;82.07;98929.62;1788384;80;22254;-69
2021/03/05 04:50:06;;;;;;;59.00;23.00;;;;;;;1.46;82.08;98928.53;1764015;81;21120;-73
2021/03/05 04:52:34;;;;;;;49.85;22.25;;;;;;;1.46;81.82;98931.78;1779810;80;21120;-77
2021/03/05 04:55:06;;;;;;;59.58;23.98;;;;;;;1.44;81.56;98940.70;1762620;81;21133;-72
2021/03/05 04:57:33;;;;;;;50.67;20.88;;;;;;;1.41;81.36;98936.65;1779739;79;21152;-72
2021/03/05 05:00:03;;;;;;;51.40;21.62;;;;;;;1.41;81.17;98935.30;1752605;81;21380;-71
2021/03/05 05:02:32;;;;;;;58.02;21.33;;;;;;;1.40;80.92;98935.03;1790607;79;21640;-72
2021/03/05 05:05:00;;;;;;;49.08;19.05;;;;;;;1.40;81.09;98937.73;1768294;80;21509;-75
2021/03/05 05:07:28;;;;;;;56.75;21.93;;;;;;;1.41;81.24;98941.25;1796649;79;21444;-75
2021/03/05 05:09:56;;;;;;;57.13;20.40;;;;;;;1.42;81.18;98946.92;1795199;79;21106;-79
2021/03/05 05:12:26;;;;;;;58.95;22.60;;;;;;;1.40;80.99;98938.27;1793813;79;21301;-83
2021/03/05 05:14:54;;;;;;;49.58;20.32;;;;;;;1.37;80.82;98943.68;1754844;81;21140;-77
2021/03/05 05:17:22;;;;;;;51.92;20.90;;;;;;;1.37;81.18;98951.80;1756728;80;21160;-73
2021/03/05 05:19:50;;;;;;;51.85;20.45;;;;;;;1.40;81.22;98950.44;1755518;80;21154;-70
2021/03/05 05:22:18;;;;;;;62.78;22.80;;;;;;;1.36;80.82;98952.06;1770498;80;21065;-77
2021/03/05 05:24:45;;;;;;;47.73;17.95;;;;;;;1.31;80.79;98957.73;1772005;80;21229;-72
2021/03/05 05:27:14;;;;;;;51.23;19.87;;;;;;;1.28;80.90;98952.87;1799586;79;21132;-72
2021/03/05 05:29:42;;;;;;;47.58;20.30;;;;;;;1.25;81.21;98956.11;1785806;79;21042;-74
2021/03/05 05:32:09;;;;;;;51.35;21.42;;;;;;;1.25;81.45;98956.11;1799478;79;21052;-73
2021/03/05 05:34:37;;;;;;;51.75;20.48;;;;;;;1.26;81.59;98953.68;1792532;79;21007;-72
2021/03/05 05:37:05;;;;;;;51.50;20.70;;;;;;;1.30;81.58;98956.11;1761272;79;21255;-73
2021/03/05 05:39:34;;;;;;;48.23;20.05;;;;;;;1.35;82.42;98958.55;1788147;80;21096;-72
2021/03/05 05:42:05;;;;;;;45.88;18.42;;;;;;;1.38;81.99;98955.31;1764860;80;21189;-71
2021/03/05 05:44:35;;;;;;;48.35;18.80;;;;;;;1.39;81.86;98960.45;1699152;83;21137;-72
2021/03/05 05:47:03;;;;;;;50.98;20.45;;;;;;;1.39;81.70;98956.39;1756971;81;21140;-69
2021/03/05 05:49:31;;;;;;;46.23;19.12;;;;;;;1.42;82.16;98968.02;1757012;81;21302;-70
2021/03/05 05:52:01;;;;;;;53.87;20.32;;;;;;;1.43;81.82;98969.65;1803093;79;21136;-70
2021/03/05 05:54:28;;;;;;;50.48;19.32;;;;;;;1.43;81.46;98975.06;1803307;79;21588;-78
2021/03/05 05:56:56;;;;;;;56.77;20.30;;;;;;;1.42;81.32;98980.73;1803091;79;21120;-79
2021/03/05 05:59:25;;;;;;;47.13;20.10;;;;;;;1.43;82.02;98985.06;1803211;79;21001;-69
2021/03/05 06:01:53;;;;;;;50.05;19.98;;;;;;;1.47;82.22;98983.44;1803357;79;22298;-68
2021/03/05 06:04:22;;;;;;;48.58;19.12;;;;;;;1.49;81.75;98988.05;1803113;79;21057;-68
2021/03/05 06:06:52;;;;;;;58.95;21.97;;;;;;;1.48;81.64;98979.66;1803188;79;21053;-71
2021/03/05 06:09:20;;;;;;;48.25;19.90;;;;;;;1.46;81.59;98987.23;1800875;79;20950;-69
2021/03/05 06:11:48;;;;;;;55.15;21.75;;;;;;;1.47;81.82;98983.44;1761093;80;21121;-73
2021/03/05 06:14:17;;;;;;;62.67;24.45;;;;;;;1.46;81.52;98984.52;1752332;81;21200;-74
2021/03/05 06:17:00;;;;;;;61.42;24.23;;;;;;;1.44;81.65;98982.63;1752439;81;21132;-84
2021/03/05 06:19:30;;;;;;;58.00;23.80;;;;;;;1.48;81.68;98991.83;1752277;81;20947;-75
2021/03/05 06:21:58;;;;;;;64.77;22.93;;;;;;;1.48;82.01;98996.70;1752438;81;21081;-76
2021/03/05 06:24:27;;;;;;;60.90;25.15;;;;;;;1.49;82.21;99001.03;1752488;81;21120;-77
2021/03/05 06:27:01;;;;;;;57.27;23.25;;;;;;;1.53;82.35;98993.19;1752337;81;21205;-83
2021/03/05 06:29:42;;;;;;;66.17;26.30;;;;;;;1.55;82.54;99001.84;1751902;81;21129;-75
2021/03/05 06:32:16;;;;;;;72.47;27.27;;;;;;;1.56;83.05;98999.41;1752439;81;21073;-76
2021/03/05 06:34:52;;;;;;;80.57;30.88;;;;;;;1.56;82.92;98992.65;1754129;81;21225;-72
2021/03/05 06:37:25;;;;;;;81.75;30.82;;;;;;;1.57;82.83;98988.31;1756159;81;21118;-70
2021/03/05 06:39:57;;;;;;;71.80;26.82;;;;;;;1.58;82.75;99001.30;1743535;82;21275;-71
2021/03/05 06:42:26;;;;;;;68.57;26.52;;;;;;;1.60;83.00;99003.20;1724057;83;21126;-70
2021/03/05 06:44:56;;;;;;;59.67;23.85;;;;;;;1.66;82.92;99012.94;1755565;81;21015;-77
2021/03/05 06:50:04;;;;;;;65.83;24.92;;;;;;;1.78;82.76;99002.63;1887224;74;22707;-69
2021/03/05 06:52:34;;;;;;;58.78;22.37;;;;;;;1.78;82.84;99001.82;1837169;77;21090;-71
2021/03/05 06:55:03;;;;;;;57.65;20.70;;;;;;;1.81;82.72;98995.32;1837826;76;21360;-74
2021/03/05 06:57:31;;;;;;;55.38;20.08;;;;;;;1.85;82.81;98993.70;1860580;77;20892;-70
2021/03/05 06:59:59;;;;;;;52.23;20.82;;;;;;;1.87;83.00;98992.07;1860590;77;21026;-73
2021/03/05 07:02:31;;;;;;;42.78;18.92;;;;;;;1.87;82.86;98988.82;1828052;77;20908;-72
2021/03/05 07:04:59;;;;;;;47.47;20.23;;;;;;;1.90;82.83;98993.69;1860542;77;20951;-71
2021/03/05 07:07:28;;;;;;;58.85;21.85;;;;;;;1.94;82.23;99002.89;1860504;77;21191;-70
2021/03/05 07:09:56;;;;;;;56.58;22.75;;;;;;;1.94;81.88;99016.42;1860537;77;20959;-71
2021/03/05 07:12:25;;;;;;;57.17;23.27;;;;;;;1.97;82.22;99019.13;1860703;77;20987;-72
2021/03/05 07:18:32;;;;;;;51.23;21.10;;;;;;;2.02;82.30;99010.19;1839901;76;21468;-71
2021/03/05 07:20:59;;;;;;;56.33;21.45;;;;;;;2.09;82.21;99006.12;1827311;77;21414;-71
2021/03/05 07:23:28;;;;;;;54.75;21.73;;;;;;;2.14;81.90;99001.24;1854233;76;21005;-70
2021/03/05 07:25:57;;;;;;;48.70;20.32;;;;;;;2.15;81.67;99003.67;1860631;77;21133;-71
2021/03/05 07:28:25;;;;;;;51.35;21.25;;;;;;;2.17;81.48;99008.28;1863469;77;21873;-71
2021/03/05 07:30:52;;;;;;;54.80;20.92;;;;;;;2.17;81.37;98999.34;1856858;76;21090;-72
2021/03/05 07:33:21;;;;;;;46.45;19.65;;;;;;;2.19;81.69;99001.23;1848924;77;21263;-71
2021/03/05 07:35:48;;;;;;;51.45;19.45;;;;;;;2.20;81.37;99005.02;1857279;76;20978;-71
2021/03/05 07:38:18;;;;;;;45.75;18.55;;;;;;;2.21;81.18;99005.84;1854728;76;20983;-72
2021/03/05 07:40:46;;;;;;;48.17;18.82;;;;;;;2.23;81.11;99003.66;1802789;77;21059;-71
2021/03/05 07:43:14;;;;;;;47.20;17.20;;;;;;;2.25;81.10;99003.66;1819848;78;21595;-72
2021/03/05 07:45:41;;;;;;;49.40;18.25;;;;;;;2.25;80.70;98998.24;1815336;78;22263;-71
2021/03/05 07:48:11;;;;;;;44.50;17.57;;;;;;;2.27;80.60;99006.09;1796067;78;21181;-71
2021/03/05 07:50:40;;;;;;;52.08;18.98;;;;;;;2.30;80.39;99005.55;1819176;78;20960;-72
2021/03/05 07:53:08;;;;;;;49.27;19.15;;;;;;;2.33;80.59;99010.38;1835605;78;21103;-72
2021/03/05 07:55:43;;;;;;;45.83;17.37;;;;;;;2.40;80.40;99006.03;1835519;78;21583;-71
2021/03/05 07:58:10;;;;;;;43.78;18.17;;;;;;;2.43;80.32;99019.03;1835537;78;21334;-72
2021/03/05 08:00:52;;;;;;;41.92;17.17;;;;;;;2.47;80.25;99020.91;1835238;78;20949;-71
2021/03/05 08:03:26;;;;;;;;;;;;;;;2.52;80.38;99020.89;1830643;78;20930;-71
2021/03/05 08:05:56;;;;;;;44.90;16.77;;;;;;;2.57;80.09;99018.17;1821359;78;20102;-72
2021/03/05 08:08:26;;;;;;;47.08;17.90;;;;;;;2.58;79.88;99014.38;1809506;79;21514;-71
2021/03/05 08:11:00;;;;;;;45.73;18.00;;;;;;;2.60;79.79;99017.63;1810730;78;21374;-71
2021/03/05 08:13:48;;;;;;;38.48;16.97;;;;;;;2.63;79.74;99020.33;1834616;78;21112;-71
2021/03/05 08:16:36;;;;;;;42.25;16.37;;;;;;;2.65;79.64;99020.31;1834626;78;20981;-71
2021/03/05 08:19:14;;;;;;;46.45;15.98;;;;;;;2.73;78.64;99014.05;1834607;78;21115;-71
2021/03/05 08:22:01;;;;;;;51.63;18.00;;;;;;;2.79;78.68;99015.11;1834635;78;21212;-71
2021/03/05 08:24:42;;;;;;;37.42;15.43;;;;;;;2.91;78.39;99016.12;1834531;78;21416;-72
2021/03/05 08:27:13;;;;;;;39.20;15.88;;;;;;;2.97;78.19;99013.10;1834729;78;20950;-71
2021/03/05 08:30:09;;;;;;;38.80;15.75;;;;;;;3.04;77.57;99014.16;1834607;78;21127;-70
2021/03/05 08:32:50;;;;;;;40.23;15.58;;;;;;;3.08;77.42;99017.13;1834673;78;21115;-73
2021/03/05 08:35:34;;;;;;;44.60;17.60;;;;;;;3.12;77.12;99018.19;1835084;78;21059;-72
2021/03/05 08:38:15;;;;;;;43.23;15.75;;;;;;;3.14;76.65;99010.58;1809889;78;21379;-72
2021/03/05 08:40:49;;;;;;;39.00;15.55;;;;;;;3.20;76.07;99010.81;1834684;78;20989;-71
2021/03/05 08:43:26;;;;;;;40.63;15.58;;;;;;;3.28;76.14;99017.02;1834725;78;21053;-72
2021/03/05 08:46:07;;;;;;;46.30;15.45;;;;;;;3.41;76.03;99020.45;1834412;78;21179;-73
2021/03/05 08:48:46;;;;;;;37.90;15.50;;;;;;;3.45;75.44;99021.52;1832573;78;21132;-72
2021/03/05 08:51:21;;;;;;;38.00;15.00;;;;;;;3.48;75.20;99024.99;1816653;79;21553;-76
2021/03/05 08:53:55;;;;;;;38.23;15.05;;;;;;;3.50;75.61;99028.23;1816321;79;20938;-73
2021/03/05 08:56:27;;;;;;;40.65;15.05;;;;;;;3.54;75.38;99026.58;1816780;79;21120;-72
2021/03/05 08:59:05;;;;;;;43.13;16.50;;;;;;;3.60;75.01;99028.71;1816947;79;21572;-72
2021/03/05 09:01:40;;;;;;;42.23;17.00;;;;;;;3.62;73.41;99030.59;1816548;78;21232;-71
2021/03/05 09:04:15;;;;;;;39.03;16.25;;;;;;;3.55;74.07;99028.75;1816761;79;21359;-71
2021/03/05 09:06:55;;;;;;;37.67;15.95;;;;;;;3.56;74.68;99029.83;1799190;79;21651;-71
2021/03/05 09:09:28;;;;;;;42.05;16.40;;;;;;;3.54;74.02;99042.05;1784362;80;21017;-71
2021/03/05 09:12:12;;;;;;;40.25;16.40;;;;;;;3.50;74.13;99044.52;1789942;78;21174;-72
2021/03/05 09:14:42;;;;;;;42.45;16.27;;;;;;;3.49;73.93;99043.44;1816827;79;21100;-71
2021/03/05 09:17:11;;;;;;;37.53;14.68;;;;;;;3.46;73.53;99045.39;1816712;79;21460;-71
2021/03/05 09:19:46;;;;;;;38.08;16.70;;;;;;;3.42;73.58;99043.78;1816469;78;21172;-71
2021/03/05 09:22:19;;;;;;;38.95;16.37;;;;;;;3.34;73.71;99048.98;1816517;79;22242;-71
2021/03/05 09:25:05;;;;;;;45.43;16.62;;;;;;;3.29;74.00;99052.00;1816614;79;21022;-73
2021/03/05 09:27:40;;;;;;;41.42;15.78;;;;;;;3.34;74.15;99052.52;1792299;79;21192;-70
2021/03/05 09:30:21;;;;;;;37.60;15.90;;;;;;;3.37;73.48;99059.28;1794690;78;20978;-71
2021/03/05 09:32:52;;;;;;;33.65;14.90;;;;;;;3.39;73.64;99062.53;1784482;80;21672;-75
2021/03/05 09:35:30;;;;;;;44.60;16.77;;;;;;;3.37;73.36;99066.88;1784941;80;21192;-77
2021/03/05 09:37:58;;;;;;;36.58;15.72;;;;;;;3.38;74.29;99073.11;1784376;80;21006;-74
2021/03/05 09:40:28;;;;;;;40.50;17.07;;;;;;;3.41;74.47;99077.98;1784526;80;21659;-74
2021/03/05 09:42:58;;;;;;;37.58;16.80;;;;;;;3.45;73.79;99074.98;1784433;80;21962;-73
2021/03/05 09:45:42;;;;;;;39.92;16.52;;;;;;;3.44;73.27;99076.88;1784374;80;21195;-72
2021/03/05 09:48:33;;;;;;;43.73;16.55;;;;;;;3.48;73.62;99075.20;1808278;78;21053;-72
2021/03/05 09:51:22;;;;;;;39.48;16.37;;;;;;;3.49;73.46;99066.51;1804167;78;20929;-71
2021/03/05 09:53:57;;;;;;;39.13;15.50;;;;;;;3.47;73.25;99065.98;1775376;79;21178;-72
2021/03/05 09:56:26;;;;;;;43.65;16.17;;;;;;;3.48;73.43;99059.45;1760811;81;22339;-72
2021/03/05 09:59:00;;;;;;;37.30;16.48;;;;;;;3.50;73.51;99072.20;1759737;81;21028;-71
2021/03/05 10:01:33;;;;;;;42.05;16.70;;;;;;;3.48;73.26;99069.77;1729844;82;21573;-71
2021/03/05 10:04:02;;;;;;;57.70;20.57;;;;;;;3.43;73.27;99077.97;1731071;82;21027;-72
2021/03/05 10:06:31;;;;;;;49.03;17.42;;;;;;;3.35;73.17;99078.55;1730746;82;21181;-74
2021/03/05 10:09:12;;;;;;;43.28;16.77;;;;;;;3.28;73.89;99080.22;1730635;82;21604;-70
2021/03/05 10:11:41;;;;;;;47.95;22.05;;;;;;;3.23;73.83;99082.14;1731904;82;20926;-72
2021/03/05 10:14:11;;;;;;;49.38;16.67;;;;;;;3.18;74.31;99086.23;1760582;81;21048;-72
2021/03/05 10:16:42;;;;;;;42.17;17.67;;;;;;;3.13;74.66;99090.33;1759137;81;21114;-71
2021/03/05 10:19:16;;;;;;;35.75;14.10;;;;;;;3.07;74.93;99083.30;1774746;80;21116;-71
2021/03/05 10:21:48;;;;;;;39.13;15.25;;;;;;;3.00;75.32;99082.23;1771329;80;21205;-72
2021/03/05 10:24:22;;;;;;;42.93;17.55;;;;;;;2.93;75.64;99083.89;1760381;81;21585;-71
2021/03/05 10:27:11;;;;;;;44.98;16.37;;;;;;;2.89;75.74;99086.08;1734845;81;21107;-71
2021/03/05 10:29:59;;;;;;;41.63;16.52;;;;;;;2.87;76.40;99095.06;1760468;81;21184;-71
2021/03/05 10:32:37;;;;;;;42.93;18.25;;;;;;;2.80;76.56;99091.83;1760580;81;21134;-72
2021/03/05 10:35:10;;;;;;;50.38;20.70;;;;;;;2.75;77.13;99090.48;1760639;81;21203;-71
2021/03/05 10:37:39;;;;;;;45.85;16.90;;;;;;;2.71;77.44;99092.94;1760175;80;21190;-71
2021/03/05 10:40:14;;;;;;;41.45;17.25;;;;;;;2.62;78.08;99102.16;1734182;81;21119;-71
2021/03/05 10:42:41;;;;;;;51.35;20.15;;;;;;;2.55;78.70;99101.64;1733350;81;21198;-73
2021/03/05 10:45:11;;;;;;;39.03;16.77;;;;;;;2.47;79.29;99107.61;1758921;81;21184;-71
2021/03/05 10:47:38;;;;;;;45.95;19.07;;;;;;;2.38;80.27;99109.25;1755849;81;22243;-70
2021/03/05 10:50:09;;;;;;;53.70;22.87;;;;;;;2.28;80.56;99107.93;1729563;82;21230;-69
2021/03/05 10:52:36;;;;;;;43.65;17.82;;;;;;;2.22;81.18;99109.02;1727904;82;21173;-69
2021/03/05 10:55:07;;;;;;;34.75;15.08;;;;;;;2.16;81.77;99099.27;1725660;83;21699;-69
2021/03/05 10:57:36;;;;;;;42.35;17.52;;;;;;;2.12;82.10;99106.31;1725622;83;21625;-69
2021/03/05 11:00:06;;;;;;;58.73;20.55;;;;;;;2.11;82.75;99116.87;1725522;83;22237;-70
2021/03/05 11:02:36;;;;;;;40.47;17.00;;;;;;;2.10;83.00;99113.89;1725655;83;21225;-71
2021/03/05 11:05:06;;;;;;;49.25;19.62;;;;;;;2.08;83.45;99106.58;1725867;82;21637;-71
2021/03/05 11:07:33;;;;;;;49.25;21.45;;;;;;;2.08;83.86;99102.52;1725678;83;21213;-71
2021/03/05 11:10:03;;;;;;;53.20;21.17;;;;;;;2.11;84.33;99111.45;1725412;83;21193;-71
2021/03/05 11:12:31;;;;;;;51.05;20.02;;;;;;;2.14;84.85;99110.38;1724816;83;21363;-70
2021/03/05 11:14:59;;;;;;;47.53;19.48;;;;;;;2.17;84.90;99111.72;1723946;83;22300;-71
2021/03/05 11:17:27;;;;;;;44.60;17.23;;;;;;;2.18;85.18;99104.68;1724236;83;21023;-72
2021/03/05 11:19:56;;;;;;;39.45;15.50;;;;;;;2.21;85.47;99103.33;1725169;83;21221;-71
2021/03/05 11:22:24;;;;;;;37.58;15.95;;;;;;;2.29;85.40;99102.24;1724785;83;21656;-71
2021/03/05 11:24:52;;;;;;;38.63;15.65;;;;;;;2.32;85.09;99104.91;1724543;83;22296;-72
2021/03/05 11:27:20;;;;;;;33.75;13.68;;;;;;;2.32;84.98;99108.98;1724882;83;21209;-73
2021/03/05 11:29:47;;;;;;;30.85;12.40;;;;;;;2.37;84.57;99107.63;1724237;83;21201;-73
2021/03/05 11:32:15;;;;;;;24.10;11.25;;;;;;;2.44;84.43;99113.58;1725216;83;21126;-72
2021/03/05 11:34:44;;;;;;;30.77;12.07;;;;;;;2.54;83.86;99115.45;1724778;83;21153;-72
2021/03/05 11:37:12;;;;;;;24.60;10.70;;;;;;;2.61;83.12;99112.73;1699555;83;21279;-73
2021/03/05 11:39:42;;;;;;;28.55;10.90;;;;;;;2.68;82.49;99112.45;1725198;83;21192;-72
2021/03/05 11:42:10;;;;;;;23.07;9.63;;;;;;;2.74;81.91;99110.00;1725050;83;21153;-73
2021/03/05 11:44:37;;;;;;;26.93;11.45;;;;;;;2.77;81.15;99117.58;1725341;83;21137;-73
2021/03/05 11:47:05;;;;;;;27.52;12.15;;;;;;;2.82;81.93;99116.76;1725486;83;21227;-73
2021/03/05 11:49:33;;;;;;;29.10;10.80;;;;;;;2.90;82.25;99111.55;1725879;83;21438;-73
2021/03/05 11:52:01;;;;;;;27.00;10.55;;;;;;;2.97;80.90;99111.27;1724874;82;21616;-73